createdAt,value
2022-10-26T00:02:01.724Z,9.66
2022-10-26T00:05:04.059Z,9.49
2022-10-26T00:08:06.869Z,9.41
2022-10-26T00:11:09.247Z,9.45
2022-10-26T00:14:11.637Z,9.51
2022-10-26T00:17:13.858Z,9.45
2022-10-26T00:20:16.037Z,9.43
2022-10-26T00:23:18.461Z,9.45
2022-10-26T00:26:20.299Z,9.47
2022-10-26T00:29:23.059Z,9.56
2022-10-26T00:32:25.035Z,9.36
2022-10-26T00:35:44.475Z,9.49
2022-10-26T00:38:52.410Z,9.26
2022-10-26T00:41:57.303Z,9.19
2022-10-26T00:45:24.344Z,9.10
2022-10-26T00:48:29.101Z,9.03
2022-10-26T00:51:37.125Z,9.08
2022-10-26T00:54:38.973Z,9.10
2022-10-26T00:57:41.659Z,8.99
2022-10-26T01:00:46.771Z,9.00
2022-10-26T01:03:50.222Z,9.04
2022-10-26T01:06:53.012Z,9.06
2022-10-26T01:09:58.499Z,8.97
2022-10-26T01:13:00.607Z,8.95
2022-10-26T01:16:08.099Z,8.90
2022-10-26T01:19:25.803Z,8.88
2022-10-26T01:22:40.873Z,8.85
2022-10-26T01:25:51.915Z,8.86
2022-10-26T01:29:02.658Z,8.81
2022-10-26T01:32:16.690Z,8.80
2022-10-26T01:35:30.725Z,8.84
2022-10-26T01:38:44.947Z,8.89
2022-10-26T01:41:49.335Z,8.92
2022-10-26T01:44:59.985Z,8.94
2022-10-26T01:48:03.618Z,8.89
2022-10-26T01:51:06.431Z,8.85
2022-10-26T01:54:08.267Z,8.92
2022-10-26T01:57:12.353Z,9.01
2022-10-26T02:00:14.522Z,8.98
2022-10-26T02:03:40.704Z,8.89
2022-10-26T02:07:04.509Z,8.78
2022-10-26T02:10:20.121Z,8.73
2022-10-26T02:13:29.720Z,8.60
2022-10-26T02:16:40.092Z,8.51
2022-10-26T02:19:41.952Z,8.44
2022-10-26T02:22:47.621Z,8.63
2022-10-26T02:25:51.968Z,8.84
2022-10-26T02:28:56.099Z,8.44
2022-10-26T02:31:58.139Z,8.45
2022-10-26T02:35:00.542Z,8.46
2022-10-26T02:38:05.702Z,8.44
2022-10-26T02:41:09.357Z,8.47
2022-10-26T02:44:23.659Z,8.51
2022-10-26T02:47:26.474Z,8.54
2022-10-26T02:50:34.271Z,8.38
2022-10-26T02:53:40.578Z,8.38
2022-10-26T02:56:49.159Z,8.34
2022-10-26T02:59:51.211Z,8.32
2022-10-26T03:02:59.004Z,8.24
2022-10-26T03:06:09.829Z,8.18
2022-10-26T03:09:11.504Z,8.20
2022-10-26T03:12:13.308Z,8.33
2022-10-26T03:15:15.806Z,8.38
2022-10-26T03:18:17.610Z,8.39
2022-10-26T03:21:19.516Z,8.39
2022-10-26T03:24:21.329Z,8.25
2022-10-26T03:27:23.378Z,8.16
2022-10-26T03:30:25.469Z,8.17
2022-10-26T03:33:28.014Z,8.28
2022-10-26T03:36:29.865Z,8.29
2022-10-26T03:39:31.567Z,8.28
2022-10-26T03:42:37.080Z,8.31
2022-10-26T03:45:38.898Z,8.29
2022-10-26T03:48:40.777Z,8.40
2022-10-26T03:51:42.489Z,8.38
2022-10-26T03:54:44.358Z,8.39
2022-10-26T03:57:46.321Z,8.39
2022-10-26T04:00:48.295Z,8.38
2022-10-26T04:03:50.137Z,8.35
2022-10-26T04:06:53.247Z,8.13
2022-10-26T04:09:56.596Z,8.09
2022-10-26T04:13:02.069Z,8.18
2022-10-26T04:16:04.364Z,8.14
2022-10-26T04:19:06.232Z,8.12
2022-10-26T04:22:08.104Z,8.13
2022-10-26T04:25:11.510Z,8.11
2022-10-26T04:28:14.326Z,8.07
2022-10-26T04:31:16.458Z,8.07
2022-10-26T04:34:18.259Z,8.08
2022-10-26T04:37:20.321Z,8.01
2022-10-26T04:40:22.150Z,7.93
2022-10-26T04:43:24.059Z,7.83
2022-10-26T04:46:25.968Z,7.91
2022-10-26T04:49:27.839Z,8.02
2022-10-26T04:52:29.895Z,8.03
2022-10-26T04:55:34.744Z,7.94
2022-10-26T04:58:36.678Z,7.87
2022-10-26T05:01:39.008Z,7.69
2022-10-26T05:04:41.226Z,7.64
2022-10-26T05:07:43.479Z,7.63
2022-10-26T05:10:52.357Z,7.63
2022-10-26T05:13:54.796Z,7.60
2022-10-26T05:16:58.005Z,7.67
2022-10-26T05:20:06.254Z,7.68
2022-10-26T05:23:12.208Z,7.80
2022-10-26T05:26:14.380Z,7.79
2022-10-26T05:29:16.164Z,7.82
2022-10-26T05:32:19.371Z,7.79
2022-10-26T05:35:22.182Z,7.78
2022-10-26T05:38:24.447Z,7.84
2022-10-26T05:41:27.293Z,7.85
2022-10-26T05:44:32.334Z,7.87
2022-10-26T05:47:42.279Z,7.95
2022-10-26T05:50:45.506Z,8.02
2022-10-26T05:53:47.431Z,8.14
2022-10-26T05:56:50.259Z,8.13
2022-10-26T05:59:52.421Z,8.23
2022-10-26T06:03:12.890Z,8.34
2022-10-26T06:06:15.377Z,8.48
2022-10-26T06:09:17.986Z,8.39
2022-10-26T06:12:20.787Z,8.30
2022-10-26T06:15:23.331Z,8.36
2022-10-26T06:18:28.624Z,8.25
2022-10-26T06:21:48.099Z,8.28
2022-10-26T06:25:02.295Z,8.18
2022-10-26T06:28:13.654Z,8.24
2022-10-26T06:31:17.261Z,8.31
2022-10-26T06:34:28.921Z,8.36
2022-10-26T06:37:31.540Z,8.56
2022-10-26T06:40:36.613Z,8.64
2022-10-26T06:43:38.777Z,8.75
2022-10-26T06:47:01.938Z,8.89
2022-10-26T06:50:18.047Z,8.99
2022-10-26T06:53:45.046Z,9.08
2022-10-26T06:56:47.623Z,9.14
2022-10-26T06:59:53.038Z,9.16
2022-10-26T07:02:55.575Z,9.09
2022-10-26T07:05:57.933Z,9.09
2022-10-26T07:09:00.831Z,9.14
2022-10-26T07:12:04.116Z,9.10
2022-10-26T07:18:12.447Z,9.30
2022-10-26T07:21:14.371Z,9.35
2022-10-26T07:24:16.722Z,9.43
2022-10-26T07:27:21.992Z,9.57
2022-10-26T07:30:25.767Z,9.73
2022-10-26T07:33:29.014Z,9.83
2022-10-26T07:36:32.909Z,9.95
2022-10-26T07:39:35.071Z,10.08
2022-10-26T07:42:37.626Z,10.12
2022-10-26T07:45:40.883Z,10.22
2022-10-26T07:51:50.298Z,10.49
2022-10-26T07:54:52.745Z,10.62
2022-10-26T07:57:56.124Z,10.52
2022-10-26T08:01:06.699Z,10.68
2022-10-26T08:04:08.775Z,10.62
2022-10-26T08:07:11.785Z,10.56
2022-10-26T08:10:14.731Z,10.61
2022-10-26T08:13:18.561Z,10.48
2022-10-26T08:16:29.367Z,10.41
2022-10-26T08:19:41.836Z,10.64
2022-10-26T08:22:47.221Z,10.74
2022-10-26T08:25:53.250Z,10.86
2022-10-26T08:29:03.671Z,10.85
2022-10-26T08:32:13.531Z,10.90
2022-10-26T08:35:15.711Z,10.87
2022-10-26T08:38:19.683Z,10.80
2022-10-26T08:41:34.567Z,10.78
2022-10-26T08:44:41.722Z,10.81
2022-10-26T08:47:48.304Z,10.72
2022-10-26T08:51:01.480Z,10.67
2022-10-26T08:54:17.174Z,10.88
2022-10-26T08:57:26.826Z,10.98
2022-10-26T09:00:31.065Z,11.15
2022-10-26T09:03:33.777Z,11.32
2022-10-26T09:07:02.425Z,11.72
2022-10-26T09:10:16.453Z,11.88
2022-10-26T09:13:40.330Z,12.21
2022-10-26T09:16:52.265Z,12.31
2022-10-26T09:20:12.937Z,12.62
2022-10-26T09:23:29.930Z,12.89
2022-10-26T09:26:33.381Z,13.12
2022-10-26T09:29:43.019Z,13.48
2022-10-26T09:32:56.430Z,13.73
2022-10-26T09:36:02.029Z,14.01
2022-10-26T09:39:39.130Z,14.02
2022-10-26T09:43:01.682Z,14.02
2022-10-26T09:46:04.026Z,14.13
2022-10-26T09:49:07.780Z,14.18
2022-10-26T09:52:12.906Z,14.54
2022-10-26T09:55:16.003Z,14.95
2022-10-26T09:58:22.692Z,15.17
2022-10-26T10:01:28.480Z,15.32
2022-10-26T10:04:34.113Z,15.30
2022-10-26T10:07:39.955Z,15.45
2022-10-26T10:10:56.682Z,15.54
2022-10-26T10:14:07.693Z,15.55
2022-10-26T10:17:21.993Z,15.76
2022-10-26T10:20:31.954Z,15.77
2022-10-26T10:23:36.536Z,15.84
2022-10-26T10:27:06.180Z,15.89
2022-10-26T10:30:29.766Z,16.01
2022-10-26T10:33:37.671Z,15.95
2022-10-26T10:36:40.631Z,16.02
2022-10-26T10:39:42.746Z,16.00
2022-10-26T10:42:45.562Z,15.99
2022-10-26T10:45:50.407Z,16.37
2022-10-26T10:48:55.984Z,16.18
2022-10-26T10:51:59.188Z,15.96
2022-10-26T10:55:15.566Z,16.04
2022-10-26T10:58:25.048Z,16.22
2022-10-26T11:01:32.649Z,16.11
2022-10-26T11:04:41.223Z,16.34
2022-10-26T11:08:11.169Z,16.22
2022-10-26T11:11:26.288Z,16.58
2022-10-26T11:14:46.384Z,16.65
2022-10-26T11:18:00.580Z,16.72
2022-10-26T11:21:29.736Z,16.75
2022-10-26T11:24:43.280Z,16.90
2022-10-26T11:28:13.811Z,17.16
2022-10-26T11:31:26.815Z,17.19
2022-10-26T11:34:39.079Z,17.03
2022-10-26T11:40:48.955Z,17.04
2022-10-26T11:44:37.241Z,17.40
2022-10-26T11:47:49.381Z,17.49
2022-10-26T11:50:54.968Z,17.31
2022-10-26T11:53:58.950Z,17.43
2022-10-26T11:57:02.073Z,17.38
2022-10-26T12:00:05.833Z,17.15
2022-10-26T12:03:11.662Z,17.16
2022-10-26T12:06:15.265Z,17.53
2022-10-26T12:09:35.568Z,17.30
2022-10-26T12:13:04.499Z,17.62
2022-10-26T12:16:26.350Z,17.74
2022-10-26T12:19:34.177Z,17.28
2022-10-26T12:22:41.336Z,17.30
2022-10-26T12:25:43.921Z,17.54
2022-10-26T12:28:47.233Z,17.48
2022-10-26T12:31:51.335Z,17.67
2022-10-26T12:34:58.722Z,17.23
2022-10-26T12:38:02.785Z,16.62
2022-10-26T12:41:12.529Z,16.07
2022-10-26T12:44:33.200Z,15.76
2022-10-26T12:47:35.167Z,15.65
2022-10-26T12:50:37.745Z,15.65
2022-10-26T12:53:41.946Z,15.76
2022-10-26T12:57:07.367Z,15.68
2022-10-26T13:00:15.995Z,15.63
2022-10-26T13:03:54.909Z,15.66
2022-10-26T13:07:15.153Z,15.83
2022-10-26T13:10:24.850Z,15.87
2022-10-26T13:13:27.620Z,15.96
2022-10-26T13:16:30.067Z,16.07
2022-10-26T13:19:47.761Z,15.98
2022-10-26T13:22:50.605Z,15.82
2022-10-26T13:26:08.487Z,15.81
2022-10-26T13:29:10.990Z,15.96
2022-10-26T13:32:14.189Z,15.96
2022-10-26T13:35:17.565Z,15.83
2022-10-26T13:38:21.319Z,15.87
2022-10-26T13:41:28.599Z,15.87
2022-10-26T13:44:52.404Z,15.91
2022-10-26T13:48:06.552Z,15.82
2022-10-26T13:51:21.134Z,16.03
2022-10-26T13:54:37.042Z,15.88
2022-10-26T13:58:05.277Z,15.80
2022-10-26T14:01:12.174Z,15.79
2022-10-26T14:04:18.784Z,15.67
2022-10-26T14:07:27.379Z,15.70
2022-10-26T14:10:31.125Z,15.43
2022-10-26T14:13:37.081Z,15.30
2022-10-26T14:16:47.317Z,15.35
2022-10-26T14:19:50.550Z,15.35
2022-10-26T14:22:52.795Z,15.34
2022-10-26T14:25:59.149Z,15.29
2022-10-26T14:29:02.483Z,15.42
2022-10-26T14:32:30.371Z,15.38
2022-10-26T14:35:36.548Z,15.46
2022-10-26T14:38:51.523Z,15.33
2022-10-26T14:41:54.196Z,15.37
2022-10-26T14:44:57.959Z,15.35
2022-10-26T14:48:01.413Z,15.33
2022-10-26T14:51:16.969Z,15.34
2022-10-26T14:54:25.288Z,15.35
2022-10-26T14:57:36.253Z,15.25
2022-10-26T15:00:38.611Z,15.23
2022-10-26T15:03:42.146Z,15.22
2022-10-26T15:06:46.194Z,15.12
2022-10-26T15:09:53.450Z,14.98
2022-10-26T15:12:55.611Z,14.99
2022-10-26T15:16:19.037Z,14.99
2022-10-26T15:19:24.185Z,14.89
2022-10-26T15:22:31.718Z,14.82
2022-10-26T15:25:35.689Z,14.77
2022-10-26T15:28:39.090Z,14.68
2022-10-26T15:31:41.052Z,14.65
2022-10-26T15:34:43.326Z,14.58
2022-10-26T15:37:50.715Z,14.55
2022-10-26T15:40:53.188Z,14.56
2022-10-26T15:43:57.618Z,14.52
2022-10-26T15:47:05.087Z,14.50
2022-10-26T15:50:21.979Z,14.58
2022-10-26T15:53:29.009Z,14.59
2022-10-26T15:56:31.923Z,14.50
2022-10-26T15:59:33.996Z,14.52
2022-10-26T16:02:37.144Z,14.48
2022-10-26T16:05:39.198Z,14.48
2022-10-26T16:08:41.552Z,14.43
2022-10-26T16:11:44.590Z,14.32
2022-10-26T16:15:04.403Z,14.27
2022-10-26T16:18:07.654Z,14.26
2022-10-26T16:21:14.684Z,14.18
2022-10-26T16:24:17.504Z,14.17
2022-10-26T16:27:19.781Z,14.18
2022-10-26T16:30:24.750Z,14.14
2022-10-26T16:33:29.216Z,14.18
2022-10-26T16:36:34.381Z,14.06
2022-10-26T16:39:36.530Z,13.97
2022-10-26T16:42:43.961Z,13.89
2022-10-26T16:45:46.342Z,13.84
2022-10-26T16:48:51.924Z,13.76
2022-10-26T16:51:54.068Z,13.59
2022-10-26T16:54:56.491Z,13.64
2022-10-26T16:57:59.042Z,13.56
2022-10-26T17:01:01.383Z,13.58
2022-10-26T17:07:06.157Z,13.48
2022-10-26T17:10:08.575Z,13.32
2022-10-26T17:13:10.829Z,13.20
2022-10-26T17:16:22.621Z,13.11
2022-10-26T17:19:24.612Z,13.06
2022-10-26T17:22:26.844Z,13.01
2022-10-26T17:25:29.394Z,13.00
2022-10-26T17:28:32.570Z,13.04
2022-10-26T17:31:35.201Z,13.09
2022-10-26T17:34:37.990Z,13.02
2022-10-26T17:37:43.887Z,12.94
2022-10-26T17:40:45.854Z,12.94
2022-10-26T17:43:49.370Z,12.95
2022-10-26T17:46:51.592Z,12.99
2022-10-26T17:49:53.641Z,13.04
2022-10-26T17:52:56.060Z,13.01
2022-10-26T17:56:06.706Z,12.88
2022-10-26T17:59:13.105Z,12.79
2022-10-26T18:02:16.097Z,12.80
2022-10-26T18:05:18.413Z,12.86
2022-10-26T18:08:20.748Z,12.96
2022-10-26T18:11:27.226Z,12.99
2022-10-26T18:14:29.549Z,12.97
2022-10-26T18:17:31.726Z,12.98
2022-10-26T18:20:34.768Z,12.94
2022-10-26T18:23:37.584Z,12.81
2022-10-26T18:26:39.611Z,12.76
2022-10-26T18:29:41.851Z,12.68
2022-10-26T18:32:44.417Z,12.71
2022-10-26T18:35:46.989Z,12.76
2022-10-26T18:38:49.436Z,12.78
2022-10-26T18:41:51.364Z,12.77
2022-10-26T18:44:53.467Z,12.76
2022-10-26T18:47:55.437Z,12.75
2022-10-26T18:50:58.031Z,12.69
2022-10-26T18:54:00.717Z,12.70
2022-10-26T18:57:02.933Z,12.79
2022-10-26T19:00:05.557Z,12.90
2022-10-26T19:03:08.387Z,12.95
2022-10-26T19:06:25.636Z,12.90
2022-10-26T19:09:27.754Z,12.98
2022-10-26T19:12:29.944Z,12.99
2022-10-26T19:15:34.213Z,12.99
2022-10-26T19:18:36.176Z,12.96
2022-10-26T19:21:38.308Z,13.04
2022-10-26T19:24:40.637Z,13.13
2022-10-26T19:27:45.331Z,13.11
2022-10-26T19:30:47.361Z,13.07
2022-10-26T19:33:49.190Z,13.07
2022-10-26T19:36:51.341Z,13.11
2022-10-26T19:39:53.533Z,13.09
2022-10-26T19:42:57.701Z,13.06
2022-10-26T19:46:06.751Z,13.02
2022-10-26T19:49:09.005Z,13.11
2022-10-26T19:52:11.570Z,13.17
2022-10-26T19:55:14.001Z,13.23
2022-10-26T19:58:16.248Z,13.20
2022-10-26T20:01:18.483Z,13.20
2022-10-26T20:04:20.707Z,13.23
2022-10-26T20:07:23.188Z,13.29
2022-10-26T20:10:26.142Z,13.17
2022-10-26T20:13:28.000Z,13.17
2022-10-26T20:16:33.182Z,13.13
2022-10-26T20:19:35.521Z,13.06
2022-10-26T20:22:37.497Z,13.07
2022-10-26T20:25:50.630Z,13.08
2022-10-26T20:28:53.094Z,13.04
2022-10-26T20:31:56.202Z,13.06
2022-10-26T20:34:58.218Z,13.03
2022-10-26T20:38:00.719Z,12.86
2022-10-26T20:41:06.175Z,12.80
2022-10-26T20:44:18.528Z,12.78
2022-10-26T20:47:20.880Z,12.78
2022-10-26T20:50:24.206Z,12.58
2022-10-26T20:53:39.645Z,12.47
2022-10-26T20:56:42.260Z,12.45
2022-10-26T20:59:52.309Z,12.37
2022-10-26T21:02:54.003Z,12.39
2022-10-26T21:05:56.699Z,12.36
2022-10-26T21:08:58.870Z,12.29
2022-10-26T21:12:01.021Z,12.18
2022-10-26T21:15:02.816Z,12.02
2022-10-26T21:18:04.733Z,11.95
2022-10-26T21:21:06.831Z,12.01
2022-10-26T21:24:08.804Z,12.11
2022-10-26T21:27:10.851Z,12.15
2022-10-26T21:30:14.316Z,12.04
2022-10-26T21:33:18.031Z,12.00
2022-10-26T21:36:22.656Z,12.02
2022-10-26T21:39:24.682Z,12.00
2022-10-26T21:42:26.839Z,12.00
2022-10-26T21:45:28.865Z,12.07
2022-10-26T21:48:31.766Z,12.14
2022-10-26T21:51:35.088Z,12.17
2022-10-26T21:54:36.855Z,12.22
2022-10-26T21:57:38.925Z,12.21
2022-10-26T22:00:40.775Z,12.26
2022-10-26T22:03:43.356Z,12.36
2022-10-26T22:06:45.947Z,12.37
2022-10-26T22:10:07.635Z,12.41
2022-10-26T22:13:09.519Z,12.50
2022-10-26T22:16:14.164Z,12.55
2022-10-26T22:19:15.891Z,12.57
2022-10-26T22:22:17.641Z,12.59
2022-10-26T22:25:19.340Z,12.62
2022-10-26T22:28:21.206Z,12.70
2022-10-26T22:31:28.953Z,12.67
2022-10-26T22:34:30.999Z,12.68
2022-10-26T22:37:32.694Z,12.74
2022-10-26T22:40:34.582Z,12.79
2022-10-26T22:43:36.727Z,12.76
2022-10-26T22:46:38.510Z,12.80
2022-10-26T22:49:40.317Z,12.82
2022-10-26T22:52:42.050Z,12.82
2022-10-26T22:55:45.440Z,12.86
2022-10-26T22:58:47.478Z,12.89
2022-10-26T23:01:49.452Z,12.87
2022-10-26T23:04:51.444Z,12.88
2022-10-26T23:07:53.609Z,12.91
2022-10-26T23:11:00.499Z,12.97
2022-10-26T23:14:03.180Z,12.97
2022-10-26T23:17:06.269Z,12.96
2022-10-26T23:20:08.805Z,12.97
2022-10-26T23:23:10.550Z,12.98
2022-10-26T23:26:17.494Z,12.96
2022-10-26T23:29:19.235Z,12.96
2022-10-26T23:32:21.010Z,13.01
2022-10-26T23:35:23.355Z,12.98
2022-10-26T23:38:25.823Z,12.99
2022-10-26T23:41:29.004Z,12.95
2022-10-26T23:44:30.913Z,12.94
2022-10-26T23:47:32.664Z,12.95
2022-10-26T23:50:34.397Z,12.97
2022-10-26T23:53:36.197Z,12.99
2022-10-26T23:56:38.138Z,12.97
2022-10-26T23:59:39.937Z,12.98
